Time;durP1;ratioP1;P1;durP2;ratioP2;P2;SDS_P1;SDS_P2;PMS_P1;PMS_P2;Temp;Humidity;BMP_temperature;BMP_pressure;BME280_temperature;BME280_humidity;BME280_pressure;Samples;Min_cycle;Max_cycle;Signal;HPM_P1;HPM_P2
2022/08/14 00:00:13;;;;;;;11.85;9.30;;;;;;;17.72;100.00;97687.78;1814758;78;21947;-59
2022/08/14 00:02:40;;;;;;;10.68;9.58;;;;;;;17.73;100.00;97694.75;1819654;78;20900;-60
2022/08/14 00:05:08;;;;;;;11.50;9.08;;;;;;;17.71;100.00;97687.54;1795780;79;20838;-61
2022/08/14 00:07:35;;;;;;;12.58;9.08;;;;;;;17.67;100.00;97685.30;1807661;78;20860;-61
2022/08/14 00:10:08;;;;;;;15.78;9.75;;;;;;;17.64;100.00;97684.63;1823145;78;21461;-59
2022/08/14 00:12:37;;;;;;;14.63;9.48;;;;;;;17.63;100.00;97689.05;1817767;78;21233;-60
2022/08/14 00:15:15;;;;;;;10.53;9.53;;;;;;;17.62;100.00;97690.95;1822520;78;20907;-60
2022/08/14 00:17:43;;;;;;;13.13;9.00;;;;;;;17.63;100.00;97687.13;1822993;78;21775;-59
2022/08/14 00:20:11;;;;;;;12.50;8.85;;;;;;;17.63;100.00;97684.42;1815937;78;20886;-60
2022/08/14 00:22:38;;;;;;;15.25;9.00;;;;;;;17.67;100.00;97682.59;1824216;78;20919;-60
2022/08/14 00:25:06;;;;;;;16.02;9.93;;;;;;;17.70;100.00;97679.21;1809983;78;21232;-61
2022/08/14 00:27:32;;;;;;;11.03;9.08;;;;;;;17.71;100.00;97682.13;1818501;78;21018;-61
2022/08/14 00:29:59;;;;;;;11.12;9.18;;;;;;;17.65;100.00;97678.09;1822579;78;20895;-60
2022/08/14 00:32:25;;;;;;;12.00;8.60;;;;;;;17.58;100.00;97679.24;1819089;78;20958;-60
2022/08/14 00:34:52;;;;;;;12.75;8.93;;;;;;;17.52;100.00;97688.72;1822751;78;20998;-61
2022/08/14 00:37:19;;;;;;;13.10;10.15;;;;;;;17.44;100.00;97686.13;1822698;78;21104;-61
2022/08/14 00:39:45;;;;;;;12.37;9.25;;;;;;;17.38;100.00;97685.55;1822748;78;20959;-60
2022/08/14 00:42:12;;;;;;;10.30;9.20;;;;;;;17.36;100.00;97692.47;1823406;78;20867;-60
2022/08/14 00:44:38;;;;;;;10.53;8.35;;;;;;;17.32;100.00;97693.70;1822798;78;20886;-60
2022/08/14 00:47:08;;;;;;;9.18;8.18;;;;;;;17.29;100.00;97699.79;1822744;78;20915;-60
2022/08/14 00:49:35;;;;;;;10.70;8.90;;;;;;;17.29;100.00;97697.08;1823269;78;21236;-59
2022/08/14 00:52:04;;;;;;;12.50;9.70;;;;;;;17.30;100.00;97705.44;1822295;78;20876;-60
2022/08/14 00:54:30;;;;;;;11.65;8.88;;;;;;;17.30;100.00;97701.94;1816931;78;20899;-60
2022/08/14 00:56:57;;;;;;;11.53;8.58;;;;;;;17.28;100.00;97706.34;1824956;78;21415;-61
2022/08/14 00:59:26;;;;;;;10.65;8.08;;;;;;;17.28;100.00;97706.91;1820660;78;20931;-60
2022/08/14 01:01:56;;;;;;;20.25;7.75;;;;;;;17.25;100.00;97699.45;1809047;78;21075;-60
2022/08/14 01:04:22;;;;;;;12.58;8.88;;;;;;;17.24;100.00;97694.59;1795657;79;21007;-61
2022/08/14 01:06:50;;;;;;;16.48;9.30;;;;;;;17.26;100.00;97697.78;1819940;78;21394;-61
2022/08/14 01:09:21;;;;;;;11.48;8.93;;;;;;;17.19;100.00;97700.83;1815717;78;20908;-59
2022/08/14 01:11:51;;;;;;;11.88;8.40;;;;;;;17.12;100.00;97706.81;1796355;79;20841;-60
2022/08/14 01:14:18;;;;;;;10.08;8.13;;;;;;;17.13;100.00;97702.97;1804263;78;21101;-60
2022/08/14 01:16:45;;;;;;;8.73;7.80;;;;;;;17.19;100.00;97698.13;1823229;78;20923;-59
2022/08/14 01:21:57;;;;;;;11.48;9.55;;;;;;;17.20;100.00;97695.06;1813929;78;20982;-60
2022/08/14 01:24:24;;;;;;;14.05;10.18;;;;;;;17.19;100.00;97692.16;1813126;78;20970;-60
2022/08/14 01:26:52;;;;;;;14.87;9.73;;;;;;;17.15;100.00;97689.08;1806911;78;22069;-60
2022/08/14 01:29:19;;;;;;;10.60;9.40;;;;;;;17.15;100.00;97692.58;1819635;78;20872;-61
2022/08/14 01:31:51;;;;;;;18.07;11.03;;;;;;;17.11;100.00;97680.88;1825840;78;20955;-60
2022/08/14 01:34:14;;;;;;;23.02;10.25;;;;;;;17.07;100.00;97679.98;1821891;78;20978;-60
2022/08/14 01:36:41;;;;;;;26.95;10.85;;;;;;;17.07;100.00;97675.92;1822804;78;20907;-59
2022/08/14 01:39:11;;;;;;;23.60;9.90;;;;;;;17.05;100.00;97670.83;1822788;78;21202;-59
2022/08/14 01:41:38;;;;;;;16.35;9.80;;;;;;;17.05;100.00;97668.71;1822921;78;20999;-60
2022/08/14 01:44:11;;;;;;;18.32;9.38;;;;;;;17.03;100.00;97663.63;1822256;78;21455;-60
2022/08/14 01:46:37;;;;;;;16.23;9.30;;;;;;;17.01;100.00;97666.44;1819221;78;20967;-60
2022/08/14 01:49:06;;;;;;;27.85;9.30;;;;;;;16.99;100.00;97670.05;1822662;78;20927;-59
2022/08/14 01:51:34;;;;;;;16.15;9.05;;;;;;;16.97;100.00;97673.11;1805202;78;21097;-60
2022/08/14 01:54:08;;;;;;;22.95;9.35;;;;;;;16.94;100.00;97679.74;1808409;78;20864;-60
2022/08/14 01:56:38;;;;;;;13.00;7.95;;;;;;;16.89;100.00;97679.97;1823125;78;21429;-60
2022/08/14 01:59:19;;;;;;;11.25;7.53;;;;;;;16.85;100.00;97675.02;1821257;78;21065;-60
2022/08/14 02:01:48;;;;;;;9.90;8.43;;;;;;;16.81;100.00;97674.12;1793668;78;20986;-60
2022/08/14 02:04:15;;;;;;;14.33;8.40;;;;;;;16.76;100.00;97671.64;1820617;78;21254;-59
2022/08/14 02:06:43;;;;;;;8.75;7.95;;;;;;;16.73;100.00;97666.89;1822563;78;21371;-60
2022/08/14 02:09:10;;;;;;;9.90;7.70;;;;;;;16.68;100.00;97663.85;1819401;78;21379;-60
2022/08/14 02:11:37;;;;;;;8.05;7.25;;;;;;;16.64;100.00;97664.86;1820768;78;20852;-60
2022/08/14 02:14:07;;;;;;;8.85;7.03;;;;;;;16.57;100.00;97665.42;1815612;78;20923;-60
2022/08/14 02:16:38;;;;;;;9.78;7.90;;;;;;;16.55;100.00;97666.89;1820690;78;21803;-60
2022/08/14 02:19:10;;;;;;;9.45;8.45;;;;;;;16.53;100.00;97669.14;1821174;78;20955;-59
2022/08/14 02:21:38;;;;;;;8.58;7.47;;;;;;;16.51;100.00;97668.66;1823656;78;20915;-60
2022/08/14 02:24:05;;;;;;;7.85;7.12;;;;;;;16.52;100.00;97671.60;1811633;78;21431;-60
2022/08/14 02:26:35;;;;;;;7.55;6.00;;;;;;;16.51;100.00;97668.10;1796640;79;20908;-60
2022/08/14 02:29:11;;;;;;;9.10;6.62;;;;;;;16.49;100.00;97666.27;1812899;78;21217;-59
2022/08/14 02:31:42;;;;;;;8.08;6.65;;;;;;;16.50;100.00;97665.72;1822517;78;20911;-60
2022/08/14 02:34:21;;;;;;;8.15;6.40;;;;;;;16.49;100.00;97664.16;1821484;78;20911;-59
2022/08/14 02:36:50;;;;;;;6.60;5.87;;;;;;;16.50;100.00;97667.06;1809430;78;21427;-60
2022/08/14 02:39:17;;;;;;;6.28;5.67;;;;;;;16.54;100.00;97665.30;1820522;78;20951;-60
2022/08/14 02:41:43;;;;;;;7.10;6.20;;;;;;;16.58;100.00;97670.28;1795580;79;21194;-59
2022/08/14 02:44:10;;;;;;;7.10;6.50;;;;;;;16.58;100.00;97659.46;1796914;79;20908;-60
2022/08/14 02:46:37;;;;;;;8.80;7.17;;;;;;;16.57;100.00;97659.22;1811144;78;20856;-59
2022/08/14 02:49:05;;;;;;;8.25;6.45;;;;;;;16.54;100.00;97657.98;1822630;78;21007;-59
2022/08/14 02:51:34;;;;;;;8.95;5.70;;;;;;;16.53;100.00;97659.13;1822734;78;20840;-60
2022/08/14 02:54:01;;;;;;;9.03;6.03;;;;;;;16.49;100.00;97655.46;1820318;78;21230;-59
2022/08/14 02:56:28;;;;;;;6.15;5.50;;;;;;;16.45;100.00;97662.67;1821857;78;21490;-59
2022/08/14 02:58:56;;;;;;;6.95;6.25;;;;;;;16.44;100.00;97659.73;1817911;78;20943;-60
2022/08/14 03:01:23;;;;;;;7.17;6.25;;;;;;;16.43;100.00;97656.26;1811155;78;21003;-59
2022/08/14 03:03:52;;;;;;;7.25;5.70;;;;;;;16.43;100.00;97669.78;1817744;78;21366;-59
2022/08/14 03:06:24;;;;;;;7.47;6.65;;;;;;;16.45;100.00;97666.72;1811544;78;21228;-59
2022/08/14 03:08:53;;;;;;;6.53;5.92;;;;;;;16.41;100.00;97659.87;1819515;78;20909;-60
2022/08/14 03:11:20;;;;;;;10.40;6.37;;;;;;;16.41;100.00;97654.46;1822611;78;20852;-59
2022/08/14 03:13:50;;;;;;;6.70;5.97;;;;;;;16.40;100.00;97650.72;1817130;78;20916;-59
2022/08/14 03:16:20;;;;;;;7.97;6.03;;;;;;;16.39;100.00;97648.58;1817324;78;21411;-60
2022/08/14 03:18:50;;;;;;;8.18;6.10;;;;;;;16.42;100.00;97645.77;1819967;78;21177;-58
2022/08/14 03:21:19;;;;;;;6.85;5.70;;;;;;;16.40;100.00;97642.05;1821331;78;20907;-59
2022/08/14 03:23:47;;;;;;;14.43;6.80;;;;;;;16.41;100.00;97642.30;1810384;78;20912;-59
2022/08/14 03:26:17;;;;;;;16.80;6.92;;;;;;;16.50;100.00;97643.53;1811651;78;21011;-59
2022/08/14 03:28:47;;;;;;;7.00;6.30;;;;;;;16.57;100.00;97636.24;1820759;78;20911;-58
2022/08/14 03:31:13;;;;;;;10.25;6.40;;;;;;;16.64;100.00;97637.27;1814858;78;21225;-60
2022/08/14 03:33:41;;;;;;;8.10;6.03;;;;;;;16.71;100.00;97643.45;1822182;78;20955;-59
2022/08/14 03:36:13;;;;;;;20.55;7.22;;;;;;;16.77;100.00;97644.83;1804142;78;20968;-60
2022/08/14 03:38:44;;;;;;;21.48;7.12;;;;;;;16.82;100.00;97639.17;1809736;78;21440;-59
2022/08/14 03:41:15;;;;;;;16.62;7.35;;;;;;;16.86;100.00;97635.44;1802149;78;20904;-60
2022/08/14 03:43:42;;;;;;;16.07;7.30;;;;;;;16.91;100.00;97643.92;1812374;78;21214;-59
2022/08/14 03:46:12;;;;;;;12.18;7.12;;;;;;;16.91;100.00;97643.92;1813964;78;20911;-60
2022/08/14 03:48:42;;;;;;;16.57;7.33;;;;;;;16.86;100.00;97642.20;1822551;78;20860;-60
2022/08/14 03:51:11;;;;;;;28.17;8.33;;;;;;;16.86;100.00;97646.27;1807543;78;21396;-60
2022/08/14 03:53:40;;;;;;;14.10;7.95;;;;;;;16.87;100.00;97634.89;1818956;78;20879;-60
2022/08/14 03:56:13;;;;;;;19.30;8.18;;;;;;;16.90;100.00;97628.25;1818349;78;21681;-60
2022/08/14 03:58:49;;;;;;;15.03;7.40;;;;;;;16.94;100.00;97626.99;1810493;78;21400;-61
2022/08/14 04:01:21;;;;;;;8.60;6.42;;;;;;;16.94;100.00;97621.58;1815170;78;20955;-61
2022/08/14 04:03:48;;;;;;;10.05;6.42;;;;;;;16.97;100.00;97629.02;1803025;78;20888;-61
2022/08/14 04:06:15;;;;;;;15.78;7.75;;;;;;;17.01;100.00;97625.30;1815934;78;20931;-61
2022/08/14 04:08:42;;;;;;;16.30;7.60;;;;;;;17.05;100.00;97622.72;1801263;78;21714;-60
2022/08/14 04:11:09;;;;;;;10.72;7.10;;;;;;;17.11;100.00;97619.98;1815832;78;20825;-61
2022/08/14 04:13:40;;;;;;;7.40;6.40;;;;;;;17.16;100.00;97621.11;1822043;78;21408;-61
2022/08/14 04:16:13;;;;;;;10.03;6.83;;;;;;;17.22;100.00;97618.38;1806420;78;20951;-60
2022/08/14 04:18:42;;;;;;;8.00;7.20;;;;;;;17.28;100.00;97623.80;1818405;78;20884;-60
2022/08/14 04:21:09;;;;;;;12.68;7.67;;;;;;;17.30;100.00;97620.17;1808527;78;21878;-61
2022/08/14 04:23:36;;;;;;;25.15;7.22;;;;;;;17.34;100.00;97621.06;1817058;78;20958;-60
2022/08/14 04:26:05;;;;;;;7.25;6.55;;;;;;;17.36;100.00;97619.38;1822813;78;20955;-61
2022/08/14 04:28:31;;;;;;;9.28;6.75;;;;;;;17.36;100.00;97613.38;1823098;78;20844;-60
2022/08/14 04:30:57;;;;;;;9.43;6.25;;;;;;;17.40;100.00;97618.35;1819768;78;21511;-60
2022/08/14 04:33:24;;;;;;;12.05;6.50;;;;;;;17.46;100.00;97616.97;1822676;78;21898;-61
2022/08/14 04:35:51;;;;;;;10.95;6.70;;;;;;;17.51;100.00;97612.70;1810407;78;20915;-61
2022/08/14 04:43:51;;;;;;;7.78;6.37;;;;;;;17.64;100.00;97623.70;1823291;78;21404;-60
2022/08/14 04:46:19;;;;;;;12.18;6.20;;;;;;;17.70;100.00;97624.25;1823246;78;21215;-60
2022/08/14 04:48:48;;;;;;;10.80;6.53;;;;;;;17.75;100.00;97627.51;1820734;78;20892;-61
2022/08/14 04:51:17;;;;;;;9.80;6.20;;;;;;;17.83;100.00;97630.41;1822717;78;21019;-60
2022/08/14 04:53:45;;;;;;;17.52;7.12;;;;;;;17.92;100.00;97632.40;1822702;78;20923;-60
2022/08/14 04:56:21;;;;;;;8.03;6.25;;;;;;;17.98;100.00;97631.80;1822913;78;20870;-61
2022/08/14 04:58:46;;;;;;;6.78;5.53;;;;;;;18.03;100.00;97627.48;1822943;78;21459;-62
2022/08/14 05:01:13;;;;;;;9.48;5.70;;;;;;;18.06;100.00;97627.36;1809459;78;20853;-61
2022/08/14 05:03:40;;;;;;;6.83;6.12;;;;;;;18.11;100.00;97625.75;1811996;78;20856;-59
2022/08/14 05:06:09;;;;;;;11.08;6.83;;;;;;;18.17;100.00;97633.27;1820260;78;20916;-59
2022/08/14 05:08:36;;;;;;;14.23;7.20;;;;;;;18.26;100.00;97626.33;1815854;78;20940;-60
2022/08/14 05:11:05;;;;;;;8.63;6.42;;;;;;;18.29;100.00;97632.41;1806118;78;21115;-60
2022/08/14 05:13:33;;;;;;;8.08;6.35;;;;;;;18.30;100.00;97637.48;1821623;78;20972;-60
2022/08/14 05:16:00;;;;;;;6.70;6.00;;;;;;;18.33;100.00;97635.43;1821472;78;20923;-60
2022/08/14 05:18:31;;;;;;;6.20;5.60;;;;;;;18.35;100.00;97635.07;1818110;78;21450;-60
2022/08/14 05:20:59;;;;;;;9.13;6.50;;;;;;;18.40;100.00;97628.04;1814062;78;20866;-60
2022/08/14 05:23:29;;;;;;;6.90;6.30;;;;;;;18.47;100.00;97630.96;1821568;78;21102;-60
2022/08/14 05:26:00;;;;;;;6.50;5.87;;;;;;;18.53;100.00;97626.86;1804297;78;20956;-60
2022/08/14 05:28:27;;;;;;;7.25;6.55;;;;;;;18.62;100.00;97622.61;1805412;78;20919;-60
2022/08/14 05:30:55;;;;;;;7.55;6.28;;;;;;;18.71;100.00;97627.28;1822623;78;21034;-59
2022/08/14 05:33:25;;;;;;;10.60;6.87;;;;;;;18.85;100.00;97628.97;1819473;78;20872;-61
2022/08/14 05:35:52;;;;;;;12.20;8.05;;;;;;;19.00;100.00;97632.24;1815379;78;22053;-61
2022/08/14 05:38:25;;;;;;;8.08;6.85;;;;;;;19.17;100.00;97627.00;1809678;78;21349;-61
2022/08/14 05:40:49;;;;;;;8.15;6.30;;;;;;;19.31;100.00;97630.02;1818521;78;20836;-60
2022/08/14 05:43:15;;;;;;;7.40;6.28;;;;;;;19.41;100.00;97626.75;1820868;78;21521;-60
2022/08/14 05:45:42;;;;;;;7.03;5.40;;;;;;;19.50;100.00;97628.72;1812562;78;20940;-61
2022/08/14 05:48:12;;;;;;;7.65;5.50;;;;;;;19.56;100.00;97625.92;1819569;78;21097;-61
2022/08/14 05:50:39;;;;;;;6.53;5.70;;;;;;;19.58;100.00;97623.63;1820578;78;20867;-62
2022/08/14 05:53:06;;;;;;;7.30;5.75;;;;;;;19.56;100.00;97621.84;1816994;78;21443;-61
2022/08/14 05:55:33;;;;;;;7.97;5.90;;;;;;;19.57;100.00;97621.48;1820668;78;21081;-61
2022/08/14 05:58:03;;;;;;;7.10;6.40;;;;;;;19.60;100.00;97619.98;1805611;78;20865;-62
2022/08/14 06:00:36;;;;;;;6.90;5.95;;;;;;;19.66;100.00;97618.56;1813555;78;21198;-61
2022/08/14 06:03:04;;;;;;;9.28;6.40;;;;;;;19.71;100.00;97618.28;1822011;78;20887;-62
2022/08/14 06:05:31;;;;;;;8.58;6.40;;;;;;;19.75;100.00;97619.92;1822859;78;21458;-61
2022/08/14 06:07:58;;;;;;;8.63;7.08;;;;;;;19.80;100.00;97614.77;1822668;78;20887;-61
2022/08/14 06:10:27;;;;;;;8.23;7.03;;;;;;;19.86;100.00;97620.69;1816169;78;21003;-62
2022/08/14 06:12:53;;;;;;;7.47;6.72;;;;;;;19.88;100.00;97621.90;1822651;78;21222;-60
2022/08/14 06:15:19;;;;;;;10.75;6.40;;;;;;;19.87;100.00;97624.42;1812320;78;20929;-60
2022/08/14 06:17:51;;;;;;;9.00;6.30;;;;;;;19.89;100.00;97623.48;1822169;78;20919;-61
2022/08/14 06:20:18;;;;;;;8.28;6.62;;;;;;;19.95;100.00;97620.67;1822640;78;20884;-61
2022/08/14 06:22:45;;;;;;;9.10;6.85;;;;;;;20.05;100.00;97623.37;1820118;78;21380;-62
2022/08/14 06:25:13;;;;;;;7.65;6.85;;;;;;;20.15;100.00;97626.31;1822804;78;22052;-61
2022/08/14 06:27:43;;;;;;;7.83;6.40;;;;;;;20.27;100.00;97624.81;1809511;78;21411;-60
2022/08/14 06:30:14;;;;;;;8.58;6.92;;;;;;;20.37;100.00;97617.39;1809021;78;21407;-61
2022/08/14 06:32:41;;;;;;;7.33;6.65;;;;;;;20.50;100.00;97622.66;1822762;78;21367;-60
2022/08/14 06:35:09;;;;;;;8.75;6.78;;;;;;;20.55;100.00;97615.55;1818128;78;20872;-60
2022/08/14 06:37:51;;;;;;;7.62;6.53;;;;;;;20.63;100.00;97618.61;1810834;78;21048;-60
2022/08/14 06:40:34;;;;;;;8.03;6.97;;;;;;;20.74;100.00;97617.63;1815670;78;20943;-60
2022/08/14 06:43:07;;;;;;;11.88;7.42;;;;;;;20.85;100.00;97624.59;1815229;78;20843;-61
2022/08/14 06:45:37;;;;;;;9.18;6.85;;;;;;;20.93;100.00;97622.98;1811584;78;21543;-62
2022/08/14 06:48:04;;;;;;;8.73;7.55;;;;;;;20.97;100.00;97623.81;1816851;78;21007;-61
2022/08/14 06:50:30;;;;;;;11.15;7.97;;;;;;;20.99;100.00;97618.78;1795991;78;21197;-61
2022/08/14 06:52:58;;;;;;;11.03;8.40;;;;;;;21.02;100.00;97615.91;1801061;79;20904;-62
2022/08/14 06:55:24;;;;;;;8.85;8.05;;;;;;;21.08;100.00;97623.98;1817042;78;20958;-62
2022/08/14 06:57:51;;;;;;;13.62;8.98;;;;;;;21.15;100.00;97624.09;1820899;78;21439;-61
2022/08/14 07:00:21;;;;;;;11.73;8.85;;;;;;;21.18;100.00;97623.94;1818134;78;21387;-61
2022/08/14 07:05:45;;;;;;;9.97;8.00;;;;;;;21.34;100.00;97621.25;1785551;79;38553;-60
2022/08/14 07:08:21;;;;;;;;;;;;;;;21.52;100.00;97620.92;1812059;78;20911;-61
2022/08/14 07:10:51;;;;;;;12.07;9.10;;;;;;;21.62;100.00;97621.61;1822592;78;20101;-59
2022/08/14 07:13:18;;;;;;;10.72;8.55;;;;;;;21.66;100.00;97623.83;1816599;78;20848;-62
2022/08/14 07:15:51;;;;;;;14.10;9.08;;;;;;;21.72;100.00;97618.23;1823780;78;21073;-59
2022/08/14 07:18:26;;;;;;;9.43;8.43;;;;;;;21.78;100.00;97612.68;1817910;78;20872;-61
2022/08/14 07:20:52;;;;;;;9.80;8.80;;;;;;;21.88;100.00;97615.92;1818691;78;20967;-61
2022/08/14 07:23:20;;;;;;;10.03;9.03;;;;;;;22.01;99.90;97622.68;1819446;78;20891;-61
2022/08/14 07:25:47;;;;;;;10.40;9.28;;;;;;;22.05;98.61;97624.86;1824216;78;20919;-60
2022/08/14 07:28:22;;;;;;;11.63;9.90;;;;;;;22.06;98.43;97626.44;1822718;78;21258;-60
2022/08/14 07:30:50;;;;;;;11.60;9.58;;;;;;;22.11;98.39;97634.29;1822844;78;20955;-60
2022/08/14 07:33:16;;;;;;;10.55;9.35;;;;;;;22.18;97.69;97624.81;1816252;78;20908;-61
2022/08/14 07:35:43;;;;;;;11.08;10.05;;;;;;;22.23;96.92;97632.06;1821365;78;21450;-62
2022/08/14 07:38:16;;;;;;;10.78;9.73;;;;;;;22.24;96.40;97641.03;1815588;78;20852;-62
2022/08/14 07:40:43;;;;;;;11.03;9.88;;;;;;;22.18;96.13;97639.81;1824048;78;21094;-63
2022/08/14 07:43:09;;;;;;;12.55;11.25;;;;;;;22.18;96.48;97635.73;1808668;78;20903;-62
2022/08/14 07:45:36;;;;;;;12.60;11.30;;;;;;;22.19;96.74;97637.28;1806635;78;20921;-59
2022/08/14 07:48:05;;;;;;;12.70;11.40;;;;;;;22.21;96.69;97637.11;1822202;78;21030;-61
2022/08/14 07:50:32;;;;;;;16.20;12.80;;;;;;;22.29;96.50;97641.49;1816029;78;20880;-62
2022/08/14 07:52:58;;;;;;;15.10;13.50;;;;;;;22.40;96.29;97642.95;1822931;78;21114;-62
2022/08/14 07:55:25;;;;;;;13.68;12.23;;;;;;;22.54;96.12;97648.53;1819627;78;20923;-62
2022/08/14 07:57:52;;;;;;;13.32;12.03;;;;;;;22.62;95.59;97650.21;1820188;78;20852;-63
2022/08/14 08:00:21;;;;;;;13.00;11.68;;;;;;;22.71;95.31;97645.79;1823063;78;21442;-61
2022/08/14 08:02:50;;;;;;;13.83;12.53;;;;;;;22.79;94.98;97646.85;1822872;78;20950;-61
2022/08/14 08:05:18;;;;;;;14.45;12.98;;;;;;;22.88;94.64;97641.84;1824307;78;21263;-60
2022/08/14 08:07:46;;;;;;;15.58;12.23;;;;;;;22.96;93.68;97634.50;1822871;78;21506;-61
2022/08/14 08:10:32;;;;;;;16.00;12.63;;;;;;;23.00;93.66;97630.63;1819928;78;20923;-59
2022/08/14 08:13:08;;;;;;;17.27;12.23;;;;;;;23.07;93.16;97629.31;1822988;78;20896;-61
2022/08/14 08:15:41;;;;;;;15.50;13.40;;;;;;;23.14;93.17;97633.45;1820832;78;21062;-60
2022/08/14 08:18:09;;;;;;;14.87;12.53;;;;;;;23.25;92.41;97624.55;1822072;78;21204;-60
2022/08/14 08:20:41;;;;;;;19.17;13.35;;;;;;;23.30;92.57;97629.05;1803699;78;20920;-60
2022/08/14 08:23:08;;;;;;;16.15;12.37;;;;;;;23.40;92.83;97628.95;1818285;78;21617;-61
2022/08/14 08:25:38;;;;;;;15.08;11.88;;;;;;;23.50;92.70;97627.64;1822113;78;20978;-60
2022/08/14 08:28:20;;;;;;;14.43;12.75;;;;;;;23.61;91.89;97623.58;1800733;78;21447;-61
2022/08/14 08:30:50;;;;;;;13.40;11.43;;;;;;;23.66;91.24;97623.22;1815265;78;22137;-59
2022/08/14 08:33:19;;;;;;;18.75;12.47;;;;;;;23.64;90.47;97622.24;1817388;78;20880;-62
2022/08/14 08:35:46;;;;;;;15.05;12.13;;;;;;;23.62;90.60;97619.69;1813460;78;20919;-60
2022/08/14 08:38:16;;;;;;;14.20;11.53;;;;;;;23.61;90.45;97610.70;1820598;78;20888;-60
2022/08/14 08:40:47;;;;;;;19.00;12.33;;;;;;;23.63;90.85;97613.83;1820691;78;20869;-61
2022/08/14 08:43:21;;;;;;;18.55;12.00;;;;;;;23.66;91.03;97613.65;1816212;78;21207;-61
2022/08/14 08:46:04;;;;;;;14.25;12.13;;;;;;;23.69;90.43;97610.16;1820526;78;21474;-59
2022/08/14 08:48:47;;;;;;;15.50;12.65;;;;;;;23.80;90.45;97612.33;1819550;78;21502;-60
2022/08/14 08:51:32;;;;;;;20.15;12.58;;;;;;;23.89;90.75;97607.86;1821445;78;20927;-60
2022/08/14 08:54:08;;;;;;;14.10;12.10;;;;;;;23.98;90.11;97611.80;1817430;78;20848;-60
2022/08/14 08:56:50;;;;;;;17.20;11.28;;;;;;;24.05;89.87;97604.19;1808437;78;21106;-60
2022/08/14 08:59:26;;;;;;;14.35;11.20;;;;;;;24.11;89.56;97595.27;1820749;78;20954;-61
2022/08/14 09:02:06;;;;;;;17.02;12.10;;;;;;;24.20;89.45;97607.98;1810988;78;21003;-62
2022/08/14 09:04:43;;;;;;;15.55;11.95;;;;;;;24.29;88.86;97593.33;1818014;78;20940;-61
2022/08/14 09:07:10;;;;;;;14.98;11.40;;;;;;;24.41;87.92;97598.44;1810580;78;21371;-60
2022/08/14 09:09:50;;;;;;;18.12;11.85;;;;;;;24.50;87.84;97600.77;1815412;78;22018;-62
2022/08/14 09:12:17;;;;;;;16.20;11.30;;;;;;;24.59;87.93;97601.77;1802160;78;20916;-61
2022/08/14 09:14:46;;;;;;;13.55;11.10;;;;;;;24.70;87.09;97597.07;1806222;78;21002;-60
2022/08/14 09:17:12;;;;;;;14.00;10.30;;;;;;;24.75;87.17;97598.05;1804686;78;20904;-61
2022/08/14 09:19:39;;;;;;;15.75;10.13;;;;;;;24.82;86.79;97602.97;1818373;78;20896;-59
2022/08/14 09:22:06;;;;;;;12.95;10.88;;;;;;;24.90;86.00;97599.03;1821237;78;21232;-61
2022/08/14 09:24:33;;;;;;;15.10;10.13;;;;;;;24.88;84.32;97598.65;1813378;78;21061;-60
2022/08/14 09:27:00;;;;;;;14.15;10.08;;;;;;;24.81;84.58;97600.02;1815552;78;21379;-60
2022/08/14 09:29:26;;;;;;;13.45;10.68;;;;;;;24.77;85.07;97597.88;1811630;78;21042;-61
2022/08/14 09:31:55;;;;;;;12.73;9.58;;;;;;;24.78;85.37;97594.53;1822219;78;20930;-61
2022/08/14 09:34:47;;;;;;;14.95;8.83;;;;;;;24.85;84.88;97590.42;1821122;78;21459;-62
2022/08/14 09:37:42;;;;;;;10.13;9.05;;;;;;;24.97;84.62;97598.23;1820021;78;20958;-61
2022/08/14 09:40:33;;;;;;;13.58;10.00;;;;;;;25.10;83.63;97587.87;1822876;78;25194;-61
2022/08/14 09:43:29;;;;;;;13.00;9.63;;;;;;;25.19;83.44;97585.28;1822760;78;21388;-62
2022/08/14 09:45:57;;;;;;;14.45;9.93;;;;;;;25.26;83.07;97586.05;1817034;78;20931;-59
2022/08/14 09:48:25;;;;;;;14.05;9.18;;;;;;;25.36;82.28;97581.14;1822716;78;21115;-61
2022/08/14 09:50:53;;;;;;;16.62;8.50;;;;;;;25.51;82.64;97586.78;1809118;78;20876;-61
2022/08/14 09:53:43;;;;;;;13.75;8.18;;;;;;;25.69;81.44;97580.65;1822485;78;20876;-62
2022/08/14 09:56:10;;;;;;;10.68;7.80;;;;;;;25.86;77.72;97562.55;1782276;79;20865;-60
2022/08/14 09:58:42;;;;;;;14.98;8.68;;;;;;;26.01;74.59;97574.20;1795727;79;20888;-61
2022/08/14 10:01:14;;;;;;;11.48;8.05;;;;;;;26.14;74.61;97575.34;1815444;78;21084;-61
2022/08/14 10:03:51;;;;;;;15.32;8.33;;;;;;;26.29;74.31;97571.30;1822912;78;20868;-61
2022/08/14 10:06:20;;;;;;;10.88;8.25;;;;;;;26.45;74.16;97570.19;1815834;78;20908;-61
2022/08/14 10:09:04;;;;;;;12.28;8.43;;;;;;;26.56;72.84;97564.04;1816109;78;20916;-62
2022/08/14 10:11:36;;;;;;;12.13;7.90;;;;;;;26.65;72.89;97568.47;1822617;78;20868;-60
2022/08/14 10:14:18;;;;;;;11.28;7.37;;;;;;;26.72;72.10;97566.25;1819237;78;21127;-62
2022/08/14 10:16:51;;;;;;;14.63;7.28;;;;;;;26.73;72.07;97562.33;1822884;78;21446;-62
2022/08/14 10:19:18;;;;;;;11.57;7.37;;;;;;;26.72;70.52;97572.53;1820969;78;21039;-62
2022/08/14 10:22:02;;;;;;;8.70;7.55;;;;;;;26.65;69.58;97569.84;1822894;78;21493;-60
2022/08/14 10:24:31;;;;;;;11.10;7.67;;;;;;;26.56;69.11;97564.63;1813279;78;20887;-61
2022/08/14 10:27:00;;;;;;;10.48;7.45;;;;;;;26.54;68.86;97570.53;1809937;78;21083;-61
2022/08/14 10:29:39;;;;;;;9.63;7.37;;;;;;;26.57;70.23;97568.33;1820197;78;21011;-61
2022/08/14 10:32:12;;;;;;;8.93;7.47;;;;;;;26.62;68.94;97572.02;1822724;78;20932;-61
2022/08/14 10:34:41;;;;;;;12.43;7.80;;;;;;;26.62;68.24;97570.64;1824490;78;21486;-62
2022/08/14 10:37:10;;;;;;;13.25;8.00;;;;;;;26.58;67.67;97563.63;1805592;78;21035;-61
2022/08/14 10:39:38;;;;;;;9.98;7.10;;;;;;;26.43;67.59;97558.25;1811269;78;21174;-61
2022/08/14 10:42:11;;;;;;;15.80;7.78;;;;;;;26.43;67.59;97558.25;1820745;78;21459;-60
2022/08/14 10:44:46;;;;;;;11.85;7.70;;;;;;;26.41;69.04;97569.44;1820590;78;20966;-63
2022/08/14 10:47:11;;;;;;;14.60;7.50;;;;;;;26.39;68.95;97565.73;1809150;78;20857;-62
2022/08/14 10:49:49;;;;;;;10.20;7.47;;;;;;;26.39;69.15;97578.68;1809414;78;20888;-61
2022/08/14 10:52:25;;;;;;;11.97;6.83;;;;;;;26.39;68.56;97583.59;1813505;78;21116;-60
2022/08/14 10:54:51;;;;;;;12.00;6.87;;;;;;;26.40;68.21;97583.00;1819176;78;20880;-61
2022/08/14 10:57:26;;;;;;;9.48;6.42;;;;;;;26.40;67.34;97587.12;1822836;78;20912;-62
2022/08/14 10:59:54;;;;;;;;;;;;;;;26.38;66.62;97596.33;1802389;78;20940;-62
2022/08/14 11:02:28;;;;;;;10.55;7.08;;;;;;;26.31;65.97;97594.42;1797676;79;20158;-62
2022/08/14 11:05:11;;;;;;;16.97;7.45;;;;;;;26.32;66.43;97589.71;1817768;78;21306;-62
2022/08/14 11:07:42;;;;;;;13.50;7.80;;;;;;;26.34;66.75;97595.58;1818843;78;20927;-62
2022/08/14 11:10:14;;;;;;;12.98;7.45;;;;;;;26.24;67.37;97599.17;1819605;77;20978;-62
2022/08/14 11:15:30;;;;;;;12.05;7.55;;;;;;;26.17;67.35;97597.84;1805206;79;20907;-61
2022/08/14 11:17:56;;;;;;;11.57;7.05;;;;;;;26.10;66.85;97600.59;1800611;79;21103;-62
2022/08/14 11:20:26;;;;;;;11.20;7.33;;;;;;;26.09;67.42;97600.42;1820151;78;20880;-62
2022/08/14 11:22:55;;;;;;;9.68;7.37;;;;;;;26.12;68.05;97600.42;1820688;78;20872;-61
2022/08/14 11:25:23;;;;;;;13.13;7.45;;;;;;;26.20;68.21;97592.92;1814298;78;20927;-61
2022/08/14 11:27:53;;;;;;;9.48;6.80;;;;;;;26.34;68.00;97588.71;1819564;78;20849;-62
2022/08/14 11:30:22;;;;;;;12.85;7.37;;;;;;;26.57;68.25;97590.30;1820239;78;21117;-62
2022/08/14 11:32:50;;;;;;;11.48;7.47;;;;;;;26.89;67.49;97583.98;1820510;78;20915;-60
2022/08/14 11:35:20;;;;;;;12.30;7.17;;;;;;;27.14;65.13;97585.89;1816265;78;21443;-61
2022/08/14 11:37:58;;;;;;;13.08;7.00;;;;;;;27.38;64.56;97583.30;1820909;78;22020;-63
2022/08/14 11:40:28;;;;;;;12.50;7.55;;;;;;;27.75;64.21;97592.28;1820014;78;21498;-62
2022/08/14 11:42:55;;;;;;;11.78;6.87;;;;;;;28.18;62.18;97581.51;1818485;78;21700;-60
2022/08/14 11:45:24;;;;;;;12.90;6.83;;;;;;;28.53;61.67;97584.91;1817176;78;21036;-63
2022/08/14 11:47:52;;;;;;;10.82;7.08;;;;;;;28.77;59.09;97589.27;1820495;78;20876;-60